^^
Datos históricos de la estación: Murcia-Puente Tocinos
Diario Informe para Marzo 21, 2017 Unidades:  Ambas    Inglés   Métrico
« Anterior Día
Siguiente Día »
Diario Semanal Mensual Anual Configurable
  Máximo: Mínimo: Media:
Temperatura: 79.2 °F /  26.2 °C 55.9 °F /  13.3 °C 66.2 °F /  19 °C
Punto de rocio: 55.2 °F /  12.9 °C 40.8 °F /  4.9 °C 48.4 °F /  9.1 °C
Humedad: 83% 29% 56%
Velocidad viento: 11.8mph /  19.0km/h - 4.5mph /  7.3km/h
Racha viento: 20.7mph /  33.3km/h - -
Viento- - SSO
Presión: 29.9 in /  1014.1 hPa 29.8 in /  1009.7 hPa -
Precipitación: 0 in /  0.0 mm    
Historical Graphs
 
 
Tabla de datos para Marzo 21, 2017
Hora Temperatura Punto de rocio Presión Viento Velocidad viento Racha viento Humedad Intensidad lluvia(por hora) Nubes
00:00 61 °F /  16.1 °C 52.5 °F /  11.4 °C 29.9in /  1012.4hPa SSW 2mph /  3.2km/h 2.3mph /  3.7km/h 74% 0in /  0.0mm CLR
00:05 61 °F /  16.1 °C 52.5 °F /  11.4 °C 29.9in /  1012.1hPa SSW 2mph /  3.2km/h 2mph /  3.2km/h 74% 0in /  0.0mm CLR
00:10 60.8 °F /  16.0 °C 52.9 °F /  11.6 °C 29.9in /  1012.1hPa Calm   3.5mph /  5.6km/h 75% 0in /  0.0mm CLR
00:15 60.6 °F /  15.9 °C 52.5 °F /  11.4 °C 29.9in /  1012.1hPa Calm   4.6mph /  7.4km/h 75% 0in /  0.0mm CLR
00:20 60.6 °F /  15.9 °C 52.5 °F /  11.4 °C 29.9in /  1012.1hPa WSW 2.4mph /  3.9km/h 4.6mph /  7.4km/h 75% 0in /  0.0mm CLR
00:25 60.4 °F /  15.8 °C 52.5 °F /  11.4 °C 29.9in /  1012.1hPa SSW 2.4mph /  3.9km/h 2.4mph /  3.9km/h 75% 0in /  0.0mm CLR
00:30 60.4 °F /  15.8 °C 52.9 °F /  11.6 °C 29.9in /  1012.1hPa SSW 1.8mph /  2.9km/h 2.3mph /  3.7km/h 76% 0in /  0.0mm CLR
00:35 60.4 °F /  15.8 °C 52.9 °F /  11.6 °C 29.9in /  1012.1hPa SSW 1.8mph /  2.9km/h 1.8mph /  2.9km/h 76% 0in /  0.0mm CLR
00:40 60.3 °F /  15.7 °C 52.7 °F /  11.5 °C 29.9in /  1012.1hPa Calm   2.3mph /  3.7km/h 76% 0in /  0.0mm CLR
00:45 60.1 °F /  15.6 °C 52.5 °F /  11.4 °C 29.9in /  1012.1hPa Calm   2.3mph /  3.7km/h 76% 0in /  0.0mm CLR
00:50 59.9 °F /  15.5 °C 52.7 °F /  11.5 °C 29.9in /  1012.1hPa WSW 1.4mph /  2.3km/h 2.3mph /  3.7km/h 77% 0in /  0.0mm CLR
00:55 59.7 °F /  15.4 °C 52.5 °F /  11.4 °C 29.9in /  1012.1hPa ESE 1.4mph /  2.3km/h 2.3mph /  3.7km/h 77% 0in /  0.0mm CLR
01:00 59.5 °F /  15.3 °C 52.7 °F /  11.5 °C 29.9in /  1012.1hPa SSW 1.4mph /  2.3km/h 3.6mph /  5.8km/h 78% 0in /  0.0mm CLR
01:05 59.5 °F /  15.3 °C 52.7 °F /  11.5 °C 29.9in /  1011.7hPa SW 1.4mph /  2.3km/h 6.9mph /  11.1km/h 78% 0in /  0.0mm CLR
01:10 59.4 °F /  15.2 °C 52.9 °F /  11.6 °C 29.9in /  1011.7hPa SSW 3.1mph /  5.0km/h 8.1mph /  13.0km/h 79% 0in /  0.0mm CLR
01:15 59.2 °F /  15.1 °C 53.1 °F /  11.7 °C 29.9in /  1011.7hPa SW 3.1mph /  5.0km/h 9.2mph /  14.8km/h 80% 0in /  0.0mm CLR
01:20 58.8 °F /  14.9 °C 53.1 °F /  11.7 °C 29.9in /  1011.7hPa SSW 5.4mph /  8.7km/h 5.8mph /  9.3km/h 81% 0in /  0.0mm CLR
01:25 58.8 °F /  14.9 °C 53.1 °F /  11.7 °C 29.9in /  1011.7hPa SSW 5.4mph /  8.7km/h 5.8mph /  9.3km/h 81% 0in /  0.0mm CLR
01:31 58.6 °F /  14.8 °C 53.2 °F /  11.8 °C 29.9in /  1011.7hPa WSW 4mph /  6.4km/h 5.8mph /  9.3km/h 82% 0in /  0.0mm CLR
01:36 58.6 °F /  14.8 °C 53.2 °F /  11.8 °C 29.9in /  1011.7hPa SW 4mph /  6.4km/h 5.9mph /  9.5km/h 82% 0in /  0.0mm CLR
01:41 58.5 °F /  14.7 °C 53.1 °F /  11.7 °C 29.9in /  1011.7hPa SSW 4mph /  6.4km/h 8.1mph /  13.0km/h 82% 0in /  0.0mm CLR
01:46 58.3 °F /  14.6 °C 53.1 °F /  11.7 °C 29.9in /  1011.7hPa SSW 4mph /  6.4km/h 8.1mph /  13.0km/h 83% 0in /  0.0mm CLR
01:51 58.3 °F /  14.6 °C 53.1 °F /  11.7 °C 29.9in /  1011.7hPa SSW 5.2mph /  8.4km/h 6.9mph /  11.1km/h 83% 0in /  0.0mm CLR
01:56 58.1 °F /  14.5 °C 53.1 °F /  11.7 °C 29.9in /  1011.7hPa SW 5.2mph /  8.4km/h 5.8mph /  9.3km/h 83% 0in /  0.0mm CLR
02:01 58.1 °F /  14.5 °C 53.1 °F /  11.7 °C 29.9in /  1011.7hPa SSW 4mph /  6.4km/h 5.8mph /  9.3km/h 83% 0in /  0.0mm CLR
02:06 58.1 °F /  14.5 °C 53.1 °F /  11.7 °C 29.9in /  1011.4hPa SSW 4mph /  6.4km/h 4mph /  6.4km/h 83% 0in /  0.0mm CLR
02:11 58.1 °F /  14.5 °C 53.1 °F /  11.7 °C 29.9in /  1011.4hPa SSW 3.1mph /  5.0km/h 4.6mph /  7.4km/h 83% 0in /  0.0mm CLR
02:16 58.1 °F /  14.5 °C 52.5 °F /  11.4 °C 29.9in /  1011.4hPa SSW 3.1mph /  5.0km/h 6.9mph /  11.1km/h 82% 0in /  0.0mm CLR
02:21 58.1 °F /  14.5 °C 52.5 °F /  11.4 °C 29.9in /  1011.4hPa SSW 4mph /  6.4km/h 8.1mph /  13.0km/h 82% 0in /  0.0mm CLR
02:26 58.1 °F /  14.5 °C 52.5 °F /  11.4 °C 29.9in /  1011.4hPa SSW 5.2mph /  8.4km/h 5.9mph /  9.5km/h 82% 0in /  0.0mm CLR
02:31 58.3 °F /  14.6 °C 52.5 °F /  11.4 °C 29.9in /  1011.4hPa SW 5.2mph /  8.4km/h 8.1mph /  13.0km/h 81% 0in /  0.0mm CLR
02:36 58.1 °F /  14.5 °C 52.3 °F /  11.3 °C 29.9in /  1011.4hPa SW 5.4mph /  8.7km/h 9.2mph /  14.8km/h 81% 0in /  0.0mm CLR
02:41 58.1 °F /  14.5 °C 52.3 °F /  11.3 °C 29.9in /  1011.4hPa SSW 5.4mph /  8.7km/h 8.1mph /  13.0km/h 81% 0in /  0.0mm CLR
02:46 57.9 °F /  14.4 °C 52.2 °F /  11.2 °C 29.9in /  1011.4hPa SSW 5.2mph /  8.4km/h 8.1mph /  13.0km/h 81% 0in /  0.0mm CLR
02:51 57.9 °F /  14.4 °C 52.2 °F /  11.2 °C 29.9in /  1011.4hPa SSW 5.2mph /  8.4km/h 6.9mph /  11.1km/h 81% 0in /  0.0mm CLR
02:56 57.9 °F /  14.4 °C 51.8 °F /  11.0 °C 29.9in /  1011.4hPa SW 4.3mph /  6.9km/h 4.6mph /  7.4km/h 80% 0in /  0.0mm CLR
03:01 57.9 °F /  14.4 °C 51.8 °F /  11.0 °C 29.9in /  1011.4hPa South 4.3mph /  6.9km/h 4.6mph /  7.4km/h 80% 0in /  0.0mm CLR
03:06 57.9 °F /  14.4 °C 51.8 °F /  11.0 °C 29.9in /  1011.4hPa SSW 3.6mph /  5.8km/h 5.9mph /  9.5km/h 80% 0in /  0.0mm CLR
03:11 57.9 °F /  14.4 °C 51.8 °F /  11.0 °C 29.9in /  1011.4hPa SSW 3.6mph /  5.8km/h 5.4mph /  8.7km/h 80% 0in /  0.0mm CLR
03:16 57.7 °F /  14.3 °C 51.6 °F /  10.9 °C 29.9in /  1011.4hPa SSW 5.2mph /  8.4km/h 8.1mph /  13.0km/h 80% 0in /  0.0mm CLR
03:21 57.7 °F /  14.3 °C 52 °F /  11.1 °C 29.9in /  1011.1hPa SSW 5.2mph /  8.4km/h 5.8mph /  9.3km/h 81% 0in /  0.0mm CLR
03:26 57.6 °F /  14.2 °C 51.8 °F /  11.0 °C 29.9in /  1011.1hPa SSW 4mph /  6.4km/h 5.8mph /  9.3km/h 81% 0in /  0.0mm CLR
03:31 57.6 °F /  14.2 °C 51.8 °F /  11.0 °C 29.9in /  1011.1hPa South 4mph /  6.4km/h 4.7mph /  7.6km/h 81% 0in /  0.0mm CLR
03:36 57.6 °F /  14.2 °C 51.8 °F /  11.0 °C 29.9in /  1011.1hPa SW 4.3mph /  6.9km/h 4.6mph /  7.4km/h 81% 0in /  0.0mm CLR
03:41 57.6 °F /  14.2 °C 51.4 °F /  10.8 °C 29.9in /  1011.1hPa SW 4.3mph /  6.9km/h 8.1mph /  13.0km/h 80% 0in /  0.0mm CLR
03:46 57.6 °F /  14.2 °C 51.4 °F /  10.8 °C 29.9in /  1011.1hPa SSW 5.2mph /  8.4km/h 6.9mph /  11.1km/h 80% 0in /  0.0mm CLR
03:51 57.6 °F /  14.2 °C 51.4 °F /  10.8 °C 29.9in /  1011.1hPa SW 5.2mph /  8.4km/h 6.9mph /  11.1km/h 80% 0in /  0.0mm CLR
03:56 57.6 °F /  14.2 °C 51.4 °F /  10.8 °C 29.9in /  1011.1hPa SSW 4.3mph /  6.9km/h 5.8mph /  9.3km/h 80% 0in /  0.0mm CLR
04:01 57.7 °F /  14.3 °C 51.6 °F /  10.9 °C 29.9in /  1011.1hPa SW 4.3mph /  6.9km/h 5.9mph /  9.5km/h 80% 0in /  0.0mm CLR
04:06 57.7 °F /  14.3 °C 51.3 °F /  10.7 °C 29.8in /  1010.7hPa SW 4.7mph /  7.6km/h 5.8mph /  9.3km/h 79% 0in /  0.0mm CLR
04:11 57.7 °F /  14.3 °C 51.3 °F /  10.7 °C 29.8in /  1010.7hPa SW 4.7mph /  7.6km/h 4.7mph /  7.6km/h 79% 0in /  0.0mm CLR
04:16 57.7 °F /  14.3 °C 51.3 °F /  10.7 °C 29.8in /  1010.7hPa SSW 3.6mph /  5.8km/h 5.8mph /  9.3km/h 79% 0in /  0.0mm CLR
04:21 57.7 °F /  14.3 °C 50.9 °F /  10.5 °C 29.8in /  1010.7hPa SSW 3.6mph /  5.8km/h 5.8mph /  9.3km/h 78% 0in /  0.0mm CLR
04:26 57.7 °F /  14.3 °C 50.9 °F /  10.5 °C 29.8in /  1010.7hPa South 3.6mph /  5.8km/h 3.6mph /  5.8km/h 78% 0in /  0.0mm CLR
04:31 57.7 °F /  14.3 °C 50.9 °F /  10.5 °C 29.8in /  1010.7hPa SSW 3.6mph /  5.8km/h 5.8mph /  9.3km/h 78% 0in /  0.0mm CLR
04:36 57.7 °F /  14.3 °C 50.5 °F /  10.3 °C 29.8in /  1010.7hPa WSW 3.1mph /  5.0km/h 4.6mph /  7.4km/h 77% 0in /  0.0mm CLR
04:41 57.6 °F /  14.2 °C 50.7 °F /  10.4 °C 29.8in /  1010.7hPa SW 3.1mph /  5.0km/h 4.6mph /  7.4km/h 78% 0in /  0.0mm CLR
04:46 57.4 °F /  14.1 °C 50.5 °F /  10.3 °C 29.8in /  1010.7hPa WSW 3.1mph /  5.0km/h 3.5mph /  5.6km/h 78% 0in /  0.0mm CLR
04:51 57 °F /  13.9 °C 50.2 °F /  10.1 °C 29.8in /  1010.7hPa West 3.1mph /  5.0km/h 4.7mph /  7.6km/h 78% 0in /  0.0mm CLR
04:56 57 °F /  13.9 °C 50.2 °F /  10.1 °C 29.8in /  1010.7hPa WSW 3.1mph /  5.0km/h 3.5mph /  5.6km/h 78% 0in /  0.0mm CLR
05:02 57 °F /  13.9 °C 50.2 °F /  10.1 °C 29.8in /  1010.7hPa WSW 3.1mph /  5.0km/h 4.6mph /  7.4km/h 78% 0in /  0.0mm CLR
05:07 56.8 °F /  13.8 °C 50.2 °F /  10.1 °C 29.8in /  1010.7hPa WNW 2mph /  3.2km/h 3.5mph /  5.6km/h 78% 0in /  0.0mm CLR
05:12 56.8 °F /  13.8 °C 50.4 °F /  10.2 °C 29.8in /  1010.7hPa West 2mph /  3.2km/h 3.5mph /  5.6km/h 79% 0in /  0.0mm CLR
05:17 56.5 °F /  13.6 °C 50 °F /  10.0 °C 29.8in /  1010.7hPa West 2.4mph /  3.9km/h 3.5mph /  5.6km/h 79% 0in /  0.0mm CLR
05:22 56.1 °F /  13.4 °C 50 °F /  10.0 °C 29.8in /  1010.7hPa WSW 2.4mph /  3.9km/h 3.5mph /  5.6km/h 80% 0in /  0.0mm CLR
05:27 56.1 °F /  13.4 °C 50 °F /  10.0 °C 29.8in /  1010.7hPa WSW 2.4mph /  3.9km/h 4.6mph /  7.4km/h 80% 0in /  0.0mm CLR
05:32 56.1 °F /  13.4 °C 50 °F /  10.0 °C 29.8in /  1010.7hPa West 2.4mph /  3.9km/h 4.7mph /  7.6km/h 80% 0in /  0.0mm CLR
05:37 55.9 °F /  13.3 °C 49.8 °F /  9.9 °C 29.9in /  1011.1hPa WSW 3.1mph /  5.0km/h 4.6mph /  7.4km/h 80% 0in /  0.0mm CLR
05:42 55.9 °F /  13.3 °C 49.8 °F /  9.9 °C 29.9in /  1011.1hPa WSW 3.1mph /  5.0km/h 4.6mph /  7.4km/h 80% 0in /  0.0mm CLR
05:47 56.1 °F /  13.4 °C 50 °F /  10.0 °C 29.9in /  1011.1hPa West 3.1mph /  5.0km/h 5.8mph /  9.3km/h 80% 0in /  0.0mm CLR
05:52 55.9 °F /  13.3 °C 49.8 °F /  9.9 °C 29.9in /  1011.1hPa SW 3.1mph /  5.0km/h 5.8mph /  9.3km/h 80% 0in /  0.0mm CLR
05:57 56.1 °F /  13.4 °C 49.6 °F /  9.8 °C 29.9in /  1011.1hPa WSW 3.1mph /  5.0km/h 3.5mph /  5.6km/h 79% 0in /  0.0mm CLR
06:02 56.1 °F /  13.4 °C 49.6 °F /  9.8 °C 29.9in /  1011.1hPa West 3.1mph /  5.0km/h 4.6mph /  7.4km/h 79% 0in /  0.0mm CLR
06:07 56.1 °F /  13.4 °C 49.6 °F /  9.8 °C 29.9in /  1011.1hPa WSW 2.9mph /  4.7km/h 4.6mph /  7.4km/h 79% 0in /  0.0mm CLR
06:12 56.1 °F /  13.4 °C 49.5 °F /  9.7 °C 29.9in /  1011.1hPa WSW 2.9mph /  4.7km/h 4.7mph /  7.6km/h 78% 0in /  0.0mm CLR
06:17 56.3 °F /  13.5 °C 49.5 °F /  9.7 °C 29.9in /  1011.1hPa SW 3.6mph /  5.8km/h 4.6mph /  7.4km/h 78% 0in /  0.0mm CLR
06:22 56.5 °F /  13.6 °C 49.5 °F /  9.7 °C 29.9in /  1011.4hPa SW 3.6mph /  5.8km/h 5.2mph /  8.4km/h 77% 0in /  0.0mm CLR
06:27 56.7 °F /  13.7 °C 49.3 °F /  9.6 °C 29.9in /  1011.4hPa South 3.1mph /  5.0km/h 4.6mph /  7.4km/h 76% 0in /  0.0mm CLR
06:32 56.8 °F /  13.8 °C 48.9 °F /  9.4 °C 29.9in /  1011.4hPa South 3.1mph /  5.0km/h 4.6mph /  7.4km/h 75% 0in /  0.0mm CLR
06:37 57.2 °F /  14.0 °C 48.6 °F /  9.2 °C 29.9in /  1011.4hPa SSW 3.1mph /  5.0km/h 5.2mph /  8.4km/h 73% 0in /  0.0mm CLR
06:42 57.7 °F /  14.3 °C 48.4 °F /  9.1 °C 29.9in /  1011.4hPa SW 3.1mph /  5.0km/h 5.8mph /  9.3km/h 71% 0in /  0.0mm CLR
06:47 58.3 °F /  14.6 °C 48.2 °F /  9.0 °C 29.9in /  1011.4hPa SW 4.3mph /  6.9km/h 6.9mph /  11.1km/h 69% 0in /  0.0mm CLR
06:52 58.6 °F /  14.8 °C 47.7 °F /  8.7 °C 29.9in /  1011.7hPa WSW 4.3mph /  6.9km/h 4.7mph /  7.6km/h 67% 0in /  0.0mm CLR
06:57 58.8 °F /  14.9 °C 47.1 °F /  8.4 °C 29.9in /  1011.7hPa SW 4.3mph /  6.9km/h 4.6mph /  7.4km/h 65% 0in /  0.0mm CLR
07:02 59.2 °F /  15.1 °C 47.5 °F /  8.6 °C 29.9in /  1011.7hPa SW 4.3mph /  6.9km/h 4.6mph /  7.4km/h 65% 0in /  0.0mm
07:07 59.4 °F /  15.2 °C 47.1 °F /  8.4 °C 29.9in /  1011.7hPa SW 3.1mph /  5.0km/h 4.7mph /  7.6km/h 64% 0in /  0.0mm
07:12 59.5 °F /  15.3 °C 46.9 °F /  8.3 °C 29.9in /  1011.7hPa SW 3.1mph /  5.0km/h 4.6mph /  7.4km/h 63% 0in /  0.0mm
07:17 59.4 °F /  15.2 °C 47.1 °F /  8.4 °C 29.9in /  1011.7hPa SSW 3.1mph /  5.0km/h 4.6mph /  7.4km/h 64% 0in /  0.0mm
07:22 59.2 °F /  15.1 °C 47.5 °F /  8.6 °C 29.9in /  1011.7hPa SSW 3.1mph /  5.0km/h 4.6mph /  7.4km/h 65% 0in /  0.0mm
07:27 58.8 °F /  14.9 °C 47.5 °F /  8.6 °C 29.9in /  1011.7hPa WNW 2.9mph /  4.7km/h 3.5mph /  5.6km/h 66% 0in /  0.0mm
07:32 58.8 °F /  14.9 °C 47.5 °F /  8.6 °C 29.9in /  1011.7hPa West 2.9mph /  4.7km/h 3.5mph /  5.6km/h 66% 0in /  0.0mm
07:37 58.5 °F /  14.7 °C 47.1 °F /  8.4 °C 29.9in /  1011.7hPa SW 2.9mph /  4.7km/h 4.6mph /  7.4km/h 66% 0in /  0.0mm
07:47 58.3 °F /  14.6 °C 47.8 °F /  8.8 °C 29.9in /  1011.7hPa WSW 3.1mph /  5.0km/h 5.2mph /  8.4km/h 68% 0in /  0.0mm
07:52 58.3 °F /  14.6 °C 47.8 °F /  8.8 °C 29.9in /  1012.1hPa WSW 3.1mph /  5.0km/h 5.8mph /  9.3km/h 68% 0in /  0.0mm
07:57 58.3 °F /  14.6 °C 47.8 °F /  8.8 °C 29.9in /  1012.1hPa WSW 3.6mph /  5.8km/h 4.6mph /  7.4km/h 68% 0in /  0.0mm
08:02 58.3 °F /  14.6 °C 47.5 °F /  8.6 °C 29.9in /  1012.1hPa SW 3.6mph /  5.8km/h 4.6mph /  7.4km/h 67% 0in /  0.0mm
08:07 58.5 °F /  14.7 °C 47.5 °F /  8.6 °C 29.9in /  1012.4hPa West 2.9mph /  4.7km/h 3.5mph /  5.6km/h 67% 0in /  0.0mm
08:12 58.8 °F /  14.9 °C 47.5 °F /  8.6 °C 29.9in /  1012.4hPa West 2.9mph /  4.7km/h 4.6mph /  7.4km/h 66% 0in /  0.0mm
08:17 59.2 °F /  15.1 °C 47.8 °F /  8.8 °C 29.9in /  1012.4hPa SW 2.4mph /  3.9km/h 3.6mph /  5.8km/h 66% 0in /  0.0mm
08:22 59.7 °F /  15.4 °C 47.5 °F /  8.6 °C 29.9in /  1012.4hPa South 2.4mph /  3.9km/h 5.2mph /  8.4km/h 64% 0in /  0.0mm
08:27 60.4 °F /  15.8 °C 46.9 °F /  8.3 °C 29.9in /  1012.4hPa South 3.6mph /  5.8km/h 4.7mph /  7.6km/h 61% 0in /  0.0mm
08:32 61.5 °F /  16.4 °C 47.1 °F /  8.4 °C 29.9in /  1012.4hPa SSW 3.6mph /  5.8km/h 6.9mph /  11.1km/h 59% 0in /  0.0mm
08:37 62.2 °F /  16.8 °C 46.2 °F /  7.9 °C 29.9in /  1012.8hPa SSW 5.2mph /  8.4km/h 6.9mph /  11.1km/h 56% 0in /  0.0mm
08:42 62.8 °F /  17.1 °C 46.4 °F /  8.0 °C 29.9in /  1012.8hPa South 5.2mph /  8.4km/h 6.9mph /  11.1km/h 55% 0in /  0.0mm FEW
08:47 63.1 °F /  17.3 °C 46.8 °F /  8.2 °C 29.9in /  1012.8hPa South 4.7mph /  7.6km/h 4.7mph /  7.6km/h 55% 0in /  0.0mm
08:52 63.7 °F /  17.6 °C 46.8 °F /  8.2 °C 29.9in /  1012.8hPa WSW 4.7mph /  7.6km/h 4.7mph /  7.6km/h 54% 0in /  0.0mm
08:57 64.2 °F /  17.9 °C 45.7 °F /  7.6 °C 29.9in /  1012.8hPa SSW 2.4mph /  3.9km/h 5.2mph /  8.4km/h 51% 0in /  0.0mm FEW
09:02 64.9 °F /  18.3 °C 44.8 °F /  7.1 °C 29.9in /  1012.8hPa West 2.4mph /  3.9km/h 5.8mph /  9.3km/h 48% 0in /  0.0mm
09:07 65.7 °F /  18.7 °C 45.3 °F /  7.4 °C 29.9in /  1012.8hPa West 3.1mph /  5.0km/h 6.9mph /  11.1km/h 48% 0in /  0.0mm
09:12 66 °F /  18.9 °C 46.2 °F /  7.9 °C 29.9in /  1012.8hPa West 3.1mph /  5.0km/h 3.1mph /  5.0km/h 49% 0in /  0.0mm
09:17 66.6 °F /  19.2 °C 46.2 °F /  7.9 °C 29.9in /  1012.8hPa WNW 2.4mph /  3.9km/h 5.8mph /  9.3km/h 48% 0in /  0.0mm
09:22 66.9 °F /  19.4 °C 45.5 °F /  7.5 °C 29.9in /  1012.8hPa NW 2.4mph /  3.9km/h 6.9mph /  11.1km/h 46% 0in /  0.0mm
09:27 67.3 °F /  19.6 °C 45.1 °F /  7.3 °C 29.9in /  1012.8hPa WNW 3.6mph /  5.8km/h 6.9mph /  11.1km/h 45% 0in /  0.0mm
09:32 67.5 °F /  19.7 °C 45.3 °F /  7.4 °C 29.9in /  1012.8hPa WNW 3.6mph /  5.8km/h 5.9mph /  9.5km/h 45% 0in /  0.0mm
09:37 67.6 °F /  19.8 °C 45.5 °F /  7.5 °C 29.9in /  1012.8hPa West 4.7mph /  7.6km/h 6.9mph /  11.1km/h 45% 0in /  0.0mm FEW
09:42 67.8 °F /  19.9 °C 45.7 °F /  7.6 °C 29.9in /  1012.8hPa WNW 4.7mph /  7.6km/h 5.8mph /  9.3km/h 45% 0in /  0.0mm
09:47 68.2 °F /  20.1 °C 46 °F /  7.8 °C 29.9in /  1012.8hPa WNW 4.7mph /  7.6km/h 5.8mph /  9.3km/h 45% 0in /  0.0mm
09:52 68.5 °F /  20.3 °C 45.9 °F /  7.7 °C 29.9in /  1012.8hPa SW 4.7mph /  7.6km/h 4.7mph /  7.6km/h 44% 0in /  0.0mm
09:58 68.7 °F /  20.4 °C 44.8 °F /  7.1 °C 29.9in /  1012.8hPa SW 3.1mph /  5.0km/h 5.8mph /  9.3km/h 42% 0in /  0.0mm
10:03 69.1 °F /  20.6 °C 44.4 °F /  6.9 °C 29.9in /  1012.8hPa West 3.1mph /  5.0km/h 5.8mph /  9.3km/h 41% 0in /  0.0mm
10:08 69.1 °F /  20.6 °C 44.4 °F /  6.9 °C 29.9in /  1012.8hPa WSW 4.3mph /  6.9km/h 9.2mph /  14.8km/h 41% 0in /  0.0mm
10:13 69.4 °F /  20.8 °C 44.8 °F /  7.1 °C 29.9in /  1012.8hPa WSW 4.3mph /  6.9km/h 8.1mph /  13.0km/h 41% 0in /  0.0mm
10:18 69.6 °F /  20.9 °C 45 °F /  7.2 °C 29.9in /  1012.8hPa WNW 4.3mph /  6.9km/h 5.8mph /  9.3km/h 41% 0in /  0.0mm CLR
10:23 70 °F /  21.1 °C 45.1 °F /  7.3 °C 29.9in /  1012.8hPa WNW 4.3mph /  6.9km/h 5.2mph /  8.4km/h 41% 0in /  0.0mm CLR
10:28 70 °F /  21.1 °C 44.4 °F /  6.9 °C 29.9in /  1012.8hPa WNW 3.6mph /  5.8km/h 5.8mph /  9.3km/h 40% 0in /  0.0mm CLR
10:33 70.3 °F /  21.3 °C 45 °F /  7.2 °C 29.9in /  1012.8hPa SW 3.6mph /  5.8km/h 4.6mph /  7.4km/h 40% 0in /  0.0mm CLR
10:38 70.5 °F /  21.4 °C 45 °F /  7.2 °C 29.9in /  1012.8hPa SW 3.6mph /  5.8km/h 6.9mph /  11.1km/h 40% 0in /  0.0mm CLR
10:43 70.7 °F /  21.5 °C 45.1 °F /  7.3 °C 29.9in /  1012.8hPa SW 3.6mph /  5.8km/h 8.1mph /  13.0km/h 40% 0in /  0.0mm CLR
10:48 70.9 °F /  21.6 °C 45.3 °F /  7.4 °C 29.9in /  1012.8hPa WNW 4.3mph /  6.9km/h 4.6mph /  7.4km/h 40% 0in /  0.0mm CLR
10:53 71.1 °F /  21.7 °C 44.8 °F /  7.1 °C 29.9in /  1012.8hPa West 4.3mph /  6.9km/h 6.9mph /  11.1km/h 39% 0in /  0.0mm CLR
10:58 71.4 °F /  21.9 °C 45.1 °F /  7.3 °C 29.9in /  1012.8hPa West 4mph /  6.4km/h 10.4mph /  16.7km/h 39% 0in /  0.0mm CLR
11:03 71.6 °F /  22.0 °C 44.6 °F /  7.0 °C 29.9in /  1012.8hPa NW 4mph /  6.4km/h 11.5mph /  18.5km/h 38% 0in /  0.0mm CLR
11:08 71.8 °F /  22.1 °C 45.5 °F /  7.5 °C 29.9in /  1012.8hPa West 6.2mph /  10.0km/h 8.1mph /  13.0km/h 39% 0in /  0.0mm CLR
11:13 72.1 °F /  22.3 °C 45.9 °F /  7.7 °C 29.9in /  1012.8hPa WSW 6.2mph /  10.0km/h 6.2mph /  10.0km/h 39% 0in /  0.0mm CLR
11:18 72.1 °F /  22.3 °C 45.1 °F /  7.3 °C 29.9in /  1012.8hPa WNW 5.9mph /  9.5km/h 11.2mph /  18.0km/h 38% 0in /  0.0mm
11:23 72.3 °F /  22.4 °C 45.3 °F /  7.4 °C 29.9in /  1012.8hPa WSW 5.9mph /  9.5km/h 8.1mph /  13.0km/h 38% 0in /  0.0mm
11:28 72.5 °F /  22.5 °C 44.8 °F /  7.1 °C 29.9in /  1012.8hPa SW 6.4mph /  10.3km/h 9.2mph /  14.8km/h 37% 0in /  0.0mm
11:33 72.7 °F /  22.6 °C 45 °F /  7.2 °C 29.9in /  1012.8hPa SSW 6.4mph /  10.3km/h 6.4mph /  10.3km/h 37% 0in /  0.0mm
11:38 72.9 °F /  22.7 °C 44.2 °F /  6.8 °C 29.9in /  1012.8hPa SSW 5.4mph /  8.7km/h 5.8mph /  9.3km/h 36% 0in /  0.0mm
11:48 73.6 °F /  23.1 °C 45 °F /  7.2 °C 29.9in /  1012.8hPa WSW 4.7mph /  7.6km/h 5.8mph /  9.3km/h 36% 0in /  0.0mm
11:53 73.9 °F /  23.3 °C 44.4 °F /  6.9 °C 29.9in /  1012.8hPa NW 4.7mph /  7.6km/h 11.5mph /  18.5km/h 35% 0in /  0.0mm
11:58 73.8 °F /  23.2 °C 44.4 °F /  6.9 °C 29.9in /  1012.8hPa WSW 5.4mph /  8.7km/h 9.2mph /  14.8km/h 35% 0in /  0.0mm
12:03 73.9 °F /  23.3 °C 44.4 °F /  6.9 °C 29.9in /  1012.8hPa South 5.4mph /  8.7km/h 9.2mph /  14.8km/h 35% 0in /  0.0mm
12:08 73.8 °F /  23.2 °C 43.5 °F /  6.4 °C 29.9in /  1012.4hPa SW 5.2mph /  8.4km/h 6.9mph /  11.1km/h 34% 0in /  0.0mm
12:13 74.3 °F /  23.5 °C 44.1 °F /  6.7 °C 29.9in /  1012.4hPa SSE 5.2mph /  8.4km/h 6.2mph /  10.0km/h 34% 0in /  0.0mm
12:18 74.7 °F /  23.7 °C 44.4 °F /  6.9 °C 29.9in /  1012.4hPa SSW 4.3mph /  6.9km/h 6.9mph /  11.1km/h 34% 0in /  0.0mm
12:23 74.5 °F /  23.6 °C 44.2 °F /  6.8 °C 29.9in /  1012.4hPa SW 4.3mph /  6.9km/h 9.2mph /  14.8km/h 34% 0in /  0.0mm
12:28 74.5 °F /  23.6 °C 44.2 °F /  6.8 °C 29.9in /  1012.4hPa SE 5.9mph /  9.5km/h 8.1mph /  13.0km/h 34% 0in /  0.0mm
12:33 74.7 °F /  23.7 °C 44.4 °F /  6.9 °C 29.9in /  1012.4hPa West 5.9mph /  9.5km/h 6.9mph /  11.1km/h 34% 0in /  0.0mm
12:38 75 °F /  23.9 °C 44.1 °F /  6.7 °C 29.9in /  1012.1hPa WSW 4.3mph /  6.9km/h 8.1mph /  13.0km/h 33% 0in /  0.0mm
12:43 75 °F /  23.9 °C 44.1 °F /  6.7 °C 29.9in /  1012.1hPa SW 4.3mph /  6.9km/h 6.9mph /  11.1km/h 33% 0in /  0.0mm
12:48 75.6 °F /  24.2 °C 44.4 °F /  6.9 °C 29.9in /  1012.1hPa SW 4.3mph /  6.9km/h 5.9mph /  9.5km/h 33% 0in /  0.0mm
12:53 75.6 °F /  24.2 °C 44.4 °F /  6.9 °C 29.9in /  1012.1hPa SSW 4.3mph /  6.9km/h 5.8mph /  9.3km/h 33% 0in /  0.0mm
12:58 75.9 °F /  24.4 °C 43.9 °F /  6.6 °C 29.9in /  1012.1hPa SSW 3.6mph /  5.8km/h 5.8mph /  9.3km/h 32% 0in /  0.0mm
13:03 75.9 °F /  24.4 °C 44.8 °F /  7.1 °C 29.9in /  1012.1hPa WSW 3.6mph /  5.8km/h 9.2mph /  14.8km/h 33% 0in /  0.0mm
13:08 75.7 °F /  24.3 °C 45.3 °F /  7.4 °C 29.9in /  1012.1hPa SW 5.4mph /  8.7km/h 9.2mph /  14.8km/h 34% 0in /  0.0mm
13:13 75.9 °F /  24.4 °C 44.8 °F /  7.1 °C 29.9in /  1012.1hPa ESE 5.4mph /  8.7km/h 6.9mph /  11.1km/h 33% 0in /  0.0mm
13:18 76.3 °F /  24.6 °C 44.2 °F /  6.8 °C 29.9in /  1012.1hPa SSE 4.3mph /  6.9km/h 6.2mph /  10.0km/h 32% 0in /  0.0mm
13:23 76.5 °F /  24.7 °C 43.5 °F /  6.4 °C 29.9in /  1011.7hPa ESE 4.3mph /  6.9km/h 5.8mph /  9.3km/h 31% 0in /  0.0mm
13:28 76.5 °F /  24.7 °C 44.4 °F /  6.9 °C 29.9in /  1011.7hPa East 3.6mph /  5.8km/h 4.6mph /  7.4km/h 32% 0in /  0.0mm
13:33 77 °F /  25.0 °C 45 °F /  7.2 °C 29.9in /  1011.7hPa WSW 3.6mph /  5.8km/h 3.6mph /  5.8km/h 32% 0in /  0.0mm
13:38 77.4 °F /  25.2 °C 44.4 °F /  6.9 °C 29.9in /  1011.7hPa West 2.9mph /  4.7km/h 6.9mph /  11.1km/h 31% 0in /  0.0mm
13:43 77.2 °F /  25.1 °C 44.2 °F /  6.8 °C 29.9in /  1011.7hPa West 2.9mph /  4.7km/h 8.1mph /  13.0km/h 31% 0in /  0.0mm
13:48 77.2 °F /  25.1 °C 44.2 °F /  6.8 °C 29.9in /  1011.7hPa West 4.7mph /  7.6km/h 5.4mph /  8.7km/h 31% 0in /  0.0mm
13:53 77.4 °F /  25.2 °C 43.5 °F /  6.4 °C 29.9in /  1011.4hPa ESE 4.7mph /  7.6km/h 5.8mph /  9.3km/h 30% 0in /  0.0mm
13:58 77.5 °F /  25.3 °C 44.4 °F /  6.9 °C 29.9in /  1011.4hPa North 3.1mph /  5.0km/h 6.9mph /  11.1km/h 31% 0in /  0.0mm
14:03 77.7 °F /  25.4 °C 43.9 °F /  6.6 °C 29.9in /  1011.4hPa West 3.1mph /  5.0km/h 5.9mph /  9.5km/h 30% 0in /  0.0mm
14:08 78.3 °F /  25.7 °C 44.2 °F /  6.8 °C 29.9in /  1011.1hPa NNW 3.1mph /  5.0km/h 6.9mph /  11.1km/h 30% 0in /  0.0mm
14:18 78.3 °F /  25.7 °C 44.2 °F /  6.8 °C 29.9in /  1011.1hPa WNW 4mph /  6.4km/h 4.6mph /  7.4km/h 30% 0in /  0.0mm
14:23 78.4 °F /  25.8 °C 43.5 °F /  6.4 °C 29.8in /  1010.7hPa NNE 4mph /  6.4km/h 4.7mph /  7.6km/h 29% 0in /  0.0mm
14:28 78.6 °F /  25.9 °C 43.7 °F /  6.5 °C 29.8in /  1010.7hPa WNW 2.4mph /  3.9km/h 5.9mph /  9.5km/h 29% 0in /  0.0mm
14:33 79 °F /  26.1 °C 44.1 °F /  6.7 °C 29.8in /  1010.7hPa SW 2.4mph /  3.9km/h 5.8mph /  9.3km/h 29% 0in /  0.0mm
14:38 78.8 °F /  26.0 °C 43.9 °F /  6.6 °C 29.8in /  1010.7hPa West 2.9mph /  4.7km/h 6.9mph /  11.1km/h 29% 0in /  0.0mm
14:48 79 °F /  26.1 °C 44.1 °F /  6.7 °C 29.8in /  1010.7hPa West 2.4mph /  3.9km/h 4.6mph /  7.4km/h 29% 0in /  0.0mm
14:53 78.8 °F /  26.0 °C 44.8 °F /  7.1 °C 29.8in /  1010.4hPa WNW 2.4mph /  3.9km/h 3.5mph /  5.6km/h 30% 0in /  0.0mm
14:58 79.2 °F /  26.2 °C 45 °F /  7.2 °C 29.8in /  1010.4hPa SSW 2.9mph /  4.7km/h 2.9mph /  4.7km/h 30% 0in /  0.0mm
15:03 79.2 °F /  26.2 °C 44.2 °F /  6.8 °C 29.8in /  1010.4hPa SE 2.9mph /  4.7km/h 5.8mph /  9.3km/h 29% 0in /  0.0mm
15:08 78.8 °F /  26.0 °C 43.9 °F /  6.6 °C 29.8in /  1010.4hPa East 3.6mph /  5.8km/h 4.7mph /  7.6km/h 29% 0in /  0.0mm
15:13 78.4 °F /  25.8 °C 43.5 °F /  6.4 °C 29.8in /  1010.4hPa SE 3.6mph /  5.8km/h 5.8mph /  9.3km/h 29% 0in /  0.0mm FEW
15:18 78.4 °F /  25.8 °C 44.4 °F /  6.9 °C 29.8in /  1010.4hPa North 3.6mph /  5.8km/h 6.9mph /  11.1km/h 30% 0in /  0.0mm FEW
15:23 78.4 °F /  25.8 °C 44.4 °F /  6.9 °C 29.8in /  1010.0hPa SE 3.6mph /  5.8km/h 6.9mph /  11.1km/h 30% 0in /  0.0mm FEW
15:28 78.3 °F /  25.7 °C 44.2 °F /  6.8 °C 29.8in /  1010.0hPa ESE 4.3mph /  6.9km/h 6.9mph /  11.1km/h 30% 0in /  0.0mm FEW
15:33 78.3 °F /  25.7 °C 44.2 °F /  6.8 °C 29.8in /  1010.0hPa ESE 4.3mph /  6.9km/h 6.9mph /  11.1km/h 30% 0in /  0.0mm FEW
15:38 78.1 °F /  25.6 °C 44.1 °F /  6.7 °C 29.8in /  1010.0hPa SE 4.3mph /  6.9km/h 8.1mph /  13.0km/h 30% 0in /  0.0mm FEW
15:43 78.3 °F /  25.7 °C 46 °F /  7.8 °C 29.8in /  1010.0hPa SE 4.3mph /  6.9km/h 6.2mph /  10.0km/h 32% 0in /  0.0mm FEW
15:49 78.3 °F /  25.7 °C 46 °F /  7.8 °C 29.8in /  1010.0hPa SSE 4.3mph /  6.9km/h 5.8mph /  9.3km/h 32% 0in /  0.0mm FEW
15:54 78.1 °F /  25.6 °C 46.6 °F /  8.1 °C 29.8in /  1009.7hPa SE 4.3mph /  6.9km/h 6.9mph /  11.1km/h 33% 0in /  0.0mm FEW
15:59 78.1 °F /  25.6 °C 45.9 °F /  7.7 °C 29.8in /  1009.7hPa SE 4.3mph /  6.9km/h 6.9mph /  11.1km/h 32% 0in /  0.0mm FEW
16:04 77.7 °F /  25.4 °C 47.1 °F /  8.4 °C 29.8in /  1009.7hPa ESE 5mph /  8.0km/h 7mph /  11.3km/h 34% 0in /  0.0mm FEW
16:09 77.7 °F /  25.4 °C 47.1 °F /  8.4 °C 29.8in /  1009.7hPa ESE 5mph /  8.0km/h 7mph /  11.3km/h 34% 0in /  0.0mm FEW
16:14 77.5 °F /  25.3 °C 46.9 °F /  8.3 °C 29.8in /  1009.7hPa SSW 4.7mph /  7.6km/h 6.9mph /  11.1km/h 34% 0in /  0.0mm FEW
16:19 77.4 °F /  25.2 °C 46.8 °F /  8.2 °C 29.8in /  1009.7hPa SSE 6mph /  9.7km/h 8mph /  12.9km/h 34% 0in /  0.0mm FEW
16:24 77.4 °F /  25.2 °C 46.8 °F /  8.2 °C 29.8in /  1009.7hPa SSE 5.4mph /  8.7km/h 6.9mph /  11.1km/h 34% 0in /  0.0mm FEW
16:29 77.5 °F /  25.3 °C 48.6 °F /  9.2 °C 29.8in /  1009.7hPa SE 5.2mph /  8.4km/h 6.9mph /  11.1km/h 36% 0in /  0.0mm FEW
16:34 77.4 °F /  25.2 °C 48.4 °F /  9.1 °C 29.8in /  1009.7hPa SE 5.2mph /  8.4km/h 9.2mph /  14.8km/h 36% 0in /  0.0mm FEW
16:39 76.8 °F /  24.9 °C 47.8 °F /  8.8 °C 29.8in /  1010.0hPa SSE 4.7mph /  7.6km/h 9.2mph /  14.8km/h 36% 0in /  0.0mm FEW
16:44 76.6 °F /  24.8 °C 48.4 °F /  9.1 °C 29.8in /  1010.0hPa ESE 4.7mph /  7.6km/h 8.1mph /  13.0km/h 37% 0in /  0.0mm FEW
16:49 76.1 °F /  24.5 °C 47.8 °F /  8.8 °C 29.8in /  1010.0hPa East 5.4mph /  8.7km/h 5.4mph /  8.7km/h 37% 0in /  0.0mm FEW
16:54 75.9 °F /  24.4 °C 47.8 °F /  8.8 °C 29.8in /  1010.0hPa ENE 5.4mph /  8.7km/h 6.9mph /  11.1km/h 37% 0in /  0.0mm FEW
16:59 75.6 °F /  24.2 °C 48.2 °F /  9.0 °C 29.8in /  1010.0hPa East 4mph /  6.4km/h 6.9mph /  11.1km/h 38% 0in /  0.0mm FEW
17:00 75.6 °F /  24.2 °C 48.2 °F /  9.0 °C 29.8in /  1010.0hPa East 4mph /  6.4km/h 5.8mph /  9.3km/h 38% 0in /  0.0mm FEW
17:05 75.6 °F /  24.2 °C 49.5 °F /  9.7 °C 29.8in /  1010.0hPa NNE 4mph /  6.4km/h 4.6mph /  7.4km/h 40% 0in /  0.0mm FEW
17:10 74.8 °F /  23.8 °C 53.2 °F /  11.8 °C 29.8in /  1010.0hPa NNE 3.6mph /  5.8km/h 11.5mph /  18.5km/h 47% 0in /  0.0mm FEW
17:15 73.6 °F /  23.1 °C 53.8 °F /  12.1 °C 29.8in /  1010.0hPa NNE 3.6mph /  5.8km/h 9.2mph /  14.8km/h 50% 0in /  0.0mm
17:20 72.9 °F /  22.7 °C 54.7 °F /  12.6 °C 29.8in /  1010.0hPa NNE 6.9mph /  11.1km/h 11.5mph /  18.5km/h 53% 0in /  0.0mm
17:25 72.1 °F /  22.3 °C 54.7 °F /  12.6 °C 29.8in /  1010.0hPa NNE 6.9mph /  11.1km/h 13mph /  20.9km/h 54% 0in /  0.0mm
17:30 71.4 °F /  21.9 °C 54.9 °F /  12.7 °C 29.8in /  1010.0hPa NE 6.9mph /  11.1km/h 12.7mph /  20.4km/h 56% 0in /  0.0mm
17:35 70.5 °F /  21.4 °C 55 °F /  12.8 °C 29.8in /  1010.4hPa NNE 6.9mph /  11.1km/h 12.7mph /  20.4km/h 58% 0in /  0.0mm
17:40 70 °F /  21.1 °C 55 °F /  12.8 °C 29.8in /  1010.4hPa NE 9.2mph /  14.8km/h 11.5mph /  18.5km/h 59% 0in /  0.0mm
17:45 69.6 °F /  20.9 °C 55 °F /  12.8 °C 29.8in /  1010.4hPa North 9.2mph /  14.8km/h 9.2mph /  14.8km/h 60% 0in /  0.0mm
17:50 69.4 °F /  20.8 °C 54.9 °F /  12.7 °C 29.8in /  1010.4hPa East 7.4mph /  11.9km/h 11.5mph /  18.5km/h 60% 0in /  0.0mm
17:55 69.1 °F /  20.6 °C 55 °F /  12.8 °C 29.8in /  1010.4hPa NNE 7.4mph /  11.9km/h 12.7mph /  20.4km/h 61% 0in /  0.0mm
18:00 68.9 °F /  20.5 °C 54.9 °F /  12.7 °C 29.8in /  1010.4hPa NNE 8.7mph /  14.0km/h 11.5mph /  18.5km/h 61% 0in /  0.0mm
18:05 68.9 °F /  20.5 °C 54.9 °F /  12.7 °C 29.8in /  1010.7hPa NNE 8.7mph /  14.0km/h 9.2mph /  14.8km/h 61% 0in /  0.0mm
18:10 68.7 °F /  20.4 °C 55.2 °F /  12.9 °C 29.8in /  1010.7hPa NNE 6.9mph /  11.1km/h 10.4mph /  16.7km/h 62% 0in /  0.0mm
18:15 68.5 °F /  20.3 °C 55 °F /  12.8 °C 29.8in /  1010.7hPa NE 6.9mph /  11.1km/h 9.2mph /  14.8km/h 62% 0in /  0.0mm
18:20 68.5 °F /  20.3 °C 55 °F /  12.8 °C 29.8in /  1010.7hPa NNE 6.2mph /  10.0km/h 10.2mph /  16.4km/h 62% 0in /  0.0mm
18:25 68.5 °F /  20.3 °C 55 °F /  12.8 °C 29.8in /  1010.7hPa NNE 6.2mph /  10.0km/h 9.2mph /  14.8km/h 62% 0in /  0.0mm
18:30 68.4 °F /  20.2 °C 54.9 °F /  12.7 °C 29.8in /  1010.7hPa NNE 6.2mph /  10.0km/h 11.5mph /  18.5km/h 62% 0in /  0.0mm
18:35 68.2 °F /  20.1 °C 55 °F /  12.8 °C 29.9in /  1011.1hPa NE 6.2mph /  10.0km/h 10mph /  16.1km/h 63% 0in /  0.0mm
18:40 67.8 °F /  19.9 °C 54.9 °F /  12.7 °C 29.9in /  1011.1hPa NE 6.9mph /  11.1km/h 8.1mph /  13.0km/h 63% 0in /  0.0mm
18:42 67.8 °F /  19.9 °C 54.9 °F /  12.7 °C 29.9in /  1011.1hPa NE 6.9mph /  11.1km/h 10.4mph /  16.7km/h 63% 0in /  0.0mm
18:47 67.6 °F /  19.8 °C 54.7 °F /  12.6 °C 29.9in /  1011.1hPa NNE 6.2mph /  10.0km/h 6.9mph /  11.1km/h 63% 0in /  0.0mm
18:52 67.6 °F /  19.8 °C 55 °F /  12.8 °C 29.9in /  1011.1hPa NE 6.2mph /  10.0km/h 6.2mph /  10.0km/h 64% 0in /  0.0mm
18:57 67.6 °F /  19.8 °C 55 °F /  12.8 °C 29.9in /  1011.1hPa NE 4.7mph /  7.6km/h 5.8mph /  9.3km/h 64% 0in /  0.0mm
19:02 67.5 °F /  19.7 °C 54.9 °F /  12.7 °C 29.9in /  1011.1hPa NNE 4.7mph /  7.6km/h 8.1mph /  13.0km/h 64% 0in /  0.0mm
19:07 67.3 °F /  19.6 °C 54.7 °F /  12.6 °C 29.9in /  1011.1hPa NNE 5.9mph /  9.5km/h 8.1mph /  13.0km/h 64% 0in /  0.0mm
19:12 66.9 °F /  19.4 °C 54.9 °F /  12.7 °C 29.9in /  1011.1hPa ENE 5.9mph /  9.5km/h 8.1mph /  13.0km/h 65% 0in /  0.0mm
19:17 66.9 °F /  19.4 °C 54.9 °F /  12.7 °C 29.9in /  1011.1hPa NNE 5.2mph /  8.4km/h 5.2mph /  8.4km/h 65% 0in /  0.0mm FEW
19:22 66.9 °F /  19.4 °C 54.9 °F /  12.7 °C 29.9in /  1011.1hPa NNE 5.2mph /  8.4km/h 5.2mph /  8.4km/h 65% 0in /  0.0mm FEW
19:27 66.9 °F /  19.4 °C 54.9 °F /  12.7 °C 29.9in /  1011.1hPa NW 2.9mph /  4.7km/h 4.6mph /  7.4km/h 65% 0in /  0.0mm FEW
19:32 66.6 °F /  19.2 °C 54.9 °F /  12.7 °C 29.9in /  1011.1hPa North 2.9mph /  4.7km/h 5.8mph /  9.3km/h 66% 0in /  0.0mm FEW
19:37 66.6 °F /  19.2 °C 54.9 °F /  12.7 °C 29.9in /  1011.4hPa NNW 4.3mph /  6.9km/h 6.9mph /  11.1km/h 66% 0in /  0.0mm FEW
19:42 66.4 °F /  19.1 °C 54.7 °F /  12.6 °C 29.9in /  1011.4hPa NNW 4.3mph /  6.9km/h 4.7mph /  7.6km/h 66% 0in /  0.0mm FEW
19:47 66.2 °F /  19.0 °C 54.9 °F /  12.7 °C 29.9in /  1011.4hPa WNW 4.7mph /  7.6km/h 8.1mph /  13.0km/h 67% 0in /  0.0mm FEW
19:52 66 °F /  18.9 °C 54.7 °F /  12.6 °C 29.9in /  1011.7hPa NW 4.7mph /  7.6km/h 4.7mph /  7.6km/h 67% 0in /  0.0mm FEW
19:57 65.8 °F /  18.8 °C 54.7 °F /  12.6 °C 29.9in /  1011.7hPa WNW 3.6mph /  5.8km/h 3.6mph /  5.8km/h 67% 0in /  0.0mm FEW
20:02 65.8 °F /  18.8 °C 54.7 °F /  12.6 °C 29.9in /  1011.7hPa WNW 3.6mph /  5.8km/h 4.6mph /  7.4km/h 67% 0in /  0.0mm FEW
20:07 65.8 °F /  18.8 °C 55 °F /  12.8 °C 29.9in /  1012.1hPa NW 2mph /  3.2km/h 3.6mph /  5.8km/h 68% 0in /  0.0mm FEW
20:12 65.7 °F /  18.7 °C 54.9 °F /  12.7 °C 29.9in /  1012.1hPa NNW 2mph /  3.2km/h 3.5mph /  5.6km/h 68% 0in /  0.0mm FEW
20:17 65.7 °F /  18.7 °C 54.9 °F /  12.7 °C 29.9in /  1012.1hPa NNE 2.4mph /  3.9km/h 4.6mph /  7.4km/h 68% 0in /  0.0mm FEW
20:22 65.7 °F /  18.7 °C 54.3 °F /  12.4 °C 29.9in /  1012.1hPa NE 2.4mph /  3.9km/h 4.6mph /  7.4km/h 67% 0in /  0.0mm FEW
20:27 65.7 °F /  18.7 °C 54 °F /  12.2 °C 29.9in /  1012.1hPa NE 2.9mph /  4.7km/h 2.9mph /  4.7km/h 66% 0in /  0.0mm FEW
20:32 65.7 °F /  18.7 °C 54 °F /  12.2 °C 29.9in /  1012.1hPa ENE 2.9mph /  4.7km/h 4.6mph /  7.4km/h 66% 0in /  0.0mm FEW
20:37 65.7 °F /  18.7 °C 53.6 °F /  12.0 °C 29.9in /  1012.8hPa NNE 2.9mph /  4.7km/h 4.6mph /  7.4km/h 65% 0in /  0.0mm FEW
20:42 65.7 °F /  18.7 °C 53.6 °F /  12.0 °C 29.9in /  1012.8hPa NNW 2.9mph /  4.7km/h 3.5mph /  5.6km/h 65% 0in /  0.0mm FEW
20:47 65.7 °F /  18.7 °C 53.6 °F /  12.0 °C 29.9in /  1012.8hPa West 2.4mph /  3.9km/h 3.6mph /  5.8km/h 65% 0in /  0.0mm FEW
20:52 65.8 °F /  18.8 °C 50.5 °F /  10.3 °C 29.9in /  1012.8hPa WNW 2.4mph /  3.9km/h 8.5mph /  13.7km/h 58% 0in /  0.0mm FEW
20:57 66 °F /  18.9 °C 46.2 °F /  7.9 °C 29.9in /  1012.8hPa WNW 4.7mph /  7.6km/h 11.5mph /  18.5km/h 49% 0in /  0.0mm FEW
21:02 66.9 °F /  19.4 °C 41.7 °F /  5.4 °C 29.9in /  1012.8hPa West 4.7mph /  7.6km/h 15mph /  24.1km/h 40% 0in /  0.0mm FEW
21:07 67.5 °F /  19.7 °C 41 °F /  5.0 °C 29.9in /  1013.1hPa NW 9.7mph /  15.6km/h 18.4mph /  29.6km/h 38% 0in /  0.0mm FEW
21:12 67.6 °F /  19.8 °C 41.2 °F /  5.1 °C 29.9in /  1013.1hPa WNW 9.7mph /  15.6km/h 18.4mph /  29.6km/h 38% 0in /  0.0mm FEW
21:17 67.6 °F /  19.8 °C 41.2 °F /  5.1 °C 29.9in /  1013.1hPa WNW 11.8mph /  19.0km/h 15mph /  24.1km/h 38% 0in /  0.0mm FEW
21:22 67.5 °F /  19.7 °C 41 °F /  5.0 °C 29.9in /  1013.4hPa NW 11.8mph /  19.0km/h 11.8mph /  19.0km/h 38% 0in /  0.0mm FEW
21:27 67.3 °F /  19.6 °C 40.8 °F /  4.9 °C 29.9in /  1013.4hPa NW 8.1mph /  13.0km/h 16.1mph /  25.9km/h 38% 0in /  0.0mm FEW
21:37 66.9 °F /  19.4 °C 41.2 °F /  5.1 °C 29.9in /  1013.8hPa WNW 8.5mph /  13.7km/h 20.7mph /  33.3km/h 39% 0in /  0.0mm FEW
21:42 66.7 °F /  19.3 °C 41.5 °F /  5.3 °C 29.9in /  1013.8hPa West 8.5mph /  13.7km/h 16.1mph /  25.9km/h 40% 0in /  0.0mm FEW
21:47 66.6 °F /  19.2 °C 42.1 °F /  5.6 °C 29.9in /  1013.8hPa West 11.2mph /  18.0km/h 13.8mph /  22.2km/h 41% 0in /  0.0mm FEW
21:52 66.4 °F /  19.1 °C 42.1 °F /  5.6 °C 29.9in /  1013.8hPa West 11.2mph /  18.0km/h 13.8mph /  22.2km/h 41% 0in /  0.0mm FEW
21:57 66.2 °F /  19.0 °C 42.4 °F /  5.8 °C 29.9in /  1013.8hPa West 9.2mph /  14.8km/h 19.6mph /  31.5km/h 42% 0in /  0.0mm FEW
22:02 66 °F /  18.9 °C 42.3 °F /  5.7 °C 29.9in /  1013.8hPa West 9.2mph /  14.8km/h 17.3mph /  27.8km/h 42% 0in /  0.0mm FEW
22:07 65.8 °F /  18.8 °C 42.1 °F /  5.6 °C 29.9in /  1014.1hPa WNW 8.7mph /  14.0km/h 12.7mph /  20.4km/h 42% 0in /  0.0mm FEW
22:12 65.8 °F /  18.8 °C 42.6 °F /  5.9 °C 29.9in /  1014.1hPa West 8.7mph /  14.0km/h 12.7mph /  20.4km/h 43% 0in /  0.0mm FEW
22:17 65.7 °F /  18.7 °C 42.4 °F /  5.8 °C 29.9in /  1014.1hPa West 8.7mph /  14.0km/h 12.7mph /  20.4km/h 43% 0in /  0.0mm CLR
22:22 65.7 °F /  18.7 °C 42.4 °F /  5.8 °C 29.9in /  1014.1hPa West 8.7mph /  14.0km/h 16.1mph /  25.9km/h 43% 0in /  0.0mm CLR
22:27 65.5 °F /  18.6 °C 43 °F /  6.1 °C 29.9in /  1014.1hPa West 8.7mph /  14.0km/h 10.4mph /  16.7km/h 44% 0in /  0.0mm CLR
22:32 65.3 °F /  18.5 °C 42.8 °F /  6.0 °C 29.9in /  1014.1hPa WSW 8.7mph /  14.0km/h 10.4mph /  16.7km/h 44% 0in /  0.0mm CLR
22:37 65.1 °F /  18.4 °C 42.6 °F /  5.9 °C 29.9in /  1014.1hPa WSW 7.4mph /  11.9km/h 10.4mph /  16.7km/h 44% 0in /  0.0mm CLR
22:42 65.1 °F /  18.4 °C 42.6 °F /  5.9 °C 29.9in /  1014.1hPa WSW 7.4mph /  11.9km/h 10.2mph /  16.4km/h 44% 0in /  0.0mm CLR
22:47 65.1 °F /  18.4 °C 42.1 °F /  5.6 °C 29.9in /  1014.1hPa WSW 5.9mph /  9.5km/h 11.8mph /  19.0km/h 43% 0in /  0.0mm CLR
22:52 65.1 °F /  18.4 °C 42.1 °F /  5.6 °C 29.9in /  1014.1hPa SW 5.9mph /  9.5km/h 11.5mph /  18.5km/h 43% 0in /  0.0mm CLR
22:57 65.1 °F /  18.4 °C 42.1 °F /  5.6 °C 29.9in /  1014.1hPa West 6.9mph /  11.1km/h 11.2mph /  18.0km/h 43% 0in /  0.0mm CLR
23:02 65.1 °F /  18.4 °C 42.6 °F /  5.9 °C 29.9in /  1014.1hPa WSW 6.9mph /  11.1km/h 13.8mph /  22.2km/h 44% 0in /  0.0mm CLR
23:07 64.9 °F /  18.3 °C 42.4 °F /  5.8 °C 29.9in /  1014.1hPa West 6.2mph /  10.0km/h 9.2mph /  14.8km/h 44% 0in /  0.0mm CLR
23:12 64.8 °F /  18.2 °C 42.3 °F /  5.7 °C 29.9in /  1014.1hPa WSW 6.2mph /  10.0km/h 8.1mph /  13.0km/h 44% 0in /  0.0mm CLR
23:17 64.6 °F /  18.1 °C 42.3 °F /  5.7 °C 29.9in /  1014.1hPa SW 5.4mph /  8.7km/h 6.9mph /  11.1km/h 44% 0in /  0.0mm CLR
23:22 64.6 °F /  18.1 °C 42.3 °F /  5.7 °C 29.9in /  1014.1hPa SW 5.4mph /  8.7km/h 9.2mph /  14.8km/h 44% 0in /  0.0mm CLR
23:27 64.2 °F /  17.9 °C 42.4 °F /  5.8 °C 29.9in /  1014.1hPa SSW 5.9mph /  9.5km/h 10.4mph /  16.7km/h 45% 0in /  0.0mm CLR
23:32 64.2 °F /  17.9 °C 42.4 °F /  5.8 °C 29.9in /  1014.1hPa SW 5.9mph /  9.5km/h 5.9mph /  9.5km/h 45% 0in /  0.0mm CLR
23:37 64.2 °F /  17.9 °C 42.4 °F /  5.8 °C 29.9in /  1014.1hPa WSW 5.9mph /  9.5km/h 5.9mph /  9.5km/h 45% 0in /  0.0mm CLR
23:42 64.2 °F /  17.9 °C 42.4 °F /  5.8 °C 29.9in /  1014.1hPa SSW 5.9mph /  9.5km/h 10.4mph /  16.7km/h 45% 0in /  0.0mm CLR
23:47 64.2 °F /  17.9 °C 42.4 °F /  5.8 °C 29.9in /  1014.1hPa WSW 5.9mph /  9.5km/h 9.7mph /  15.6km/h 45% 0in /  0.0mm CLR
23:52 64 °F /  17.8 °C 42.3 °F /  5.7 °C 29.9in /  1014.1hPa SW 5.9mph /  9.5km/h 9.2mph /  14.8km/h 45% 0in /  0.0mm CLR
23:57 64 °F /  17.8 °C 42.3 °F /  5.7 °C 29.9in /  1014.1hPa SW 5.9mph /  9.5km/h 7.6mph /  12.2km/h 45% 0in /  0.0mm CLR
Murcia-Puente Tocinos, España
Compliments of Weather Underground - 2.75 mb

La estación de MeteoMurcia.com, publica sus datos en los siguientes proyectos:

Meteoclimatic www.awekas.at

W3Counter
Web Analytics